Time;durP1;ratioP1;P1;durP2;ratioP2;P2;SDS_P1;SDS_P2;PMS_P1;PMS_P2;Temp;Humidity;BMP_temperature;BMP_pressure;BME280_temperature;BME280_humidity;BME280_pressure;Samples;Min_cycle;Max_cycle;Signal;HPM_P1;HPM_P2
2021/07/17 00:00:52;;;;;;;6.65;3.80;;;;;;;29.77;55.34;100749.25;5070383;27;66083;-34
2021/07/17 00:03:24;;;;;;;4.47;3.63;;;;;;;29.95;54.65;100777.44;5073055;27;69877;-33
2021/07/17 00:05:54;;;;;;;10.60;4.05;;;;;;;29.96;55.27;100771.84;5074138;27;65162;-34
2021/07/17 00:08:25;;;;;;;4.20;3.72;;;;;;;30.01;55.46;100785.56;5075346;27;69734;-34
2021/07/17 00:10:57;;;;;;;;;;;;;;;29.82;56.01;100781.06;5069941;27;43962;-35
2021/07/17 00:13:27;;;;;;;3.72;3.42;;;;;;;30.05;55.21;100785.94;5070746;27;68831;-34
2021/07/17 00:15:58;;;;;;;4.20;3.78;;;;;;;30.11;55.30;100795.06;5067368;27;66325;-35
2021/07/17 00:18:28;;;;;;;5.75;3.85;;;;;;;30.14;55.26;100795.44;5068099;27;70550;-34
2021/07/17 00:20:58;;;;;;;4.40;4.00;;;;;;;30.17;55.93;100788.78;5071831;27;65902;-36
2021/07/17 00:23:30;;;;;;;3.85;3.55;;;;;;;30.21;55.50;100793.53;5071417;27;71016;-34
2021/07/17 00:26:06;;;;;;;6.10;4.13;;;;;;;30.23;55.94;100794.19;5064913;27;66815;-35
2021/07/17 00:28:36;;;;;;;10.43;4.15;;;;;;;30.27;56.31;100795.41;5075104;27;69965;-34
2021/07/17 00:31:07;;;;;;;9.07;4.32;;;;;;;30.30;57.79;100793.31;5073014;27;65405;-35
2021/07/17 00:33:37;;;;;;;15.02;5.28;;;;;;;30.33;58.11;100799.09;5074926;27;69610;-36
2021/07/17 00:36:08;;;;;;;7.13;5.85;;;;;;;30.33;58.84;100792.88;5076069;27;66033;-34
2021/07/17 00:38:38;;;;;;;8.18;5.93;;;;;;;30.39;59.00;100792.00;5074540;27;69834;-35
2021/07/17 00:41:09;;;;;;;8.75;5.78;;;;;;;30.42;59.74;100799.66;5073814;27;65958;-36
2021/07/17 00:43:39;;;;;;;17.98;6.50;;;;;;;30.47;60.92;100794.44;5073394;27;68979;-35
2021/07/17 00:46:10;;;;;;;9.10;6.47;;;;;;;30.49;61.09;100790.47;5073491;27;65345;-35
2021/07/17 00:48:40;;;;;;;7.43;6.15;;;;;;;30.53;60.72;100785.44;5069685;27;70047;-35
2021/07/17 00:51:10;;;;;;;7.88;5.95;;;;;;;30.53;60.96;100787.31;5073332;27;66216;-35
2021/07/17 00:53:41;;;;;;;7.97;6.07;;;;;;;30.58;62.01;100791.00;5073999;27;70737;-36
2021/07/17 00:56:13;;;;;;;9.32;6.30;;;;;;;30.60;61.94;100791.63;5073714;27;66286;-35
2021/07/17 00:58:45;;;;;;;8.75;6.85;;;;;;;30.65;61.62;100796.38;5075610;27;69365;-35
2021/07/17 01:01:16;;;;;;;9.13;6.47;;;;;;;30.69;61.92;100808.41;5074586;27;65713;-34
2021/07/17 01:03:46;;;;;;;9.52;5.90;;;;;;;30.71;62.43;100795.50;5076607;27;69841;-37
2021/07/17 01:06:16;;;;;;;10.50;6.35;;;;;;;30.73;62.46;100799.66;5069764;27;66476;-35
2021/07/17 01:08:47;;;;;;;6.38;5.78;;;;;;;30.76;62.88;100797.53;5066162;27;70770;-34
2021/07/17 01:11:17;;;;;;;6.90;6.25;;;;;;;30.79;62.00;100802.53;5070605;27;65542;-34
2021/07/17 01:13:47;;;;;;;9.00;6.40;;;;;;;30.77;62.61;100799.19;5071350;27;70201;-35
2021/07/17 01:16:18;;;;;;;8.43;5.90;;;;;;;30.81;63.13;100798.53;5073026;27;66704;-35
2021/07/17 01:18:48;;;;;;;11.30;6.50;;;;;;;30.84;62.86;100799.97;5071455;27;69887;-35
2021/07/17 01:21:20;;;;;;;6.22;5.75;;;;;;;30.86;62.80;100792.47;5070088;27;65651;-34
2021/07/17 01:23:50;;;;;;;6.20;5.22;;;;;;;30.89;62.76;100792.03;5070662;27;70240;-35
2021/07/17 01:26:22;;;;;;;6.03;5.53;;;;;;;30.91;62.76;100795.34;5075748;27;66219;-35
2021/07/17 01:28:52;;;;;;;9.82;6.20;;;;;;;30.92;62.04;100802.41;5051218;28;69959;-33
2021/07/17 01:31:23;;;;;;;10.05;6.00;;;;;;;30.93;63.01;100804.09;5069795;27;65552;-36
2021/07/17 01:33:53;;;;;;;9.93;5.88;;;;;;;30.97;62.08;100805.28;5063790;27;69830;-36
2021/07/17 01:36:23;;;;;;;6.50;5.90;;;;;;;31.01;62.68;100801.09;5070147;27;65487;-36
2021/07/17 01:39:02;;;;;;;6.85;6.03;;;;;;;31.03;62.27;100801.69;5069541;27;69301;-39
2021/07/17 01:41:32;;;;;;;9.10;5.45;;;;;;;31.06;61.64;100803.94;5071979;27;66265;-36
2021/07/17 01:44:03;;;;;;;5.85;5.32;;;;;;;31.10;61.59;100802.47;5066995;27;69369;-39
2021/07/17 01:46:34;;;;;;;6.20;5.70;;;;;;;31.09;61.67;100803.53;5070313;27;65069;-36
2021/07/17 01:49:05;;;;;;;11.18;5.80;;;;;;;31.12;62.00;100805.78;5069711;27;70374;-36
2021/07/17 01:51:36;;;;;;;13.25;7.07;;;;;;;31.24;61.28;100815.88;5069648;27;66293;-36
2021/07/17 01:54:06;;;;;;;10.32;5.60;;;;;;;31.28;61.30;100820.59;5076731;27;70533;-36
2021/07/17 01:56:37;;;;;;;10.93;6.47;;;;;;;31.30;61.78;100810.38;5072218;27;65932;-35
2021/07/17 01:59:07;;;;;;;10.65;5.63;;;;;;;31.33;60.77;100803.69;5052623;28;70271;-35
2021/07/17 02:01:38;;;;;;;9.48;5.50;;;;;;;31.27;59.04;100810.00;5066702;27;66128;-35
2021/07/17 02:04:09;;;;;;;5.65;5.05;;;;;;;31.14;56.62;100810.97;5072215;27;70013;-33
2021/07/17 02:06:39;;;;;;;11.23;4.72;;;;;;;31.04;55.29;100805.25;5067053;27;66707;-34
2021/07/17 02:09:09;;;;;;;6.28;5.05;;;;;;;30.92;54.84;100803.28;5065607;27;70001;-33
2021/07/17 02:11:40;;;;;;;9.45;4.50;;;;;;;30.80;54.93;100805.03;5069768;27;66762;-32
2021/07/17 02:14:10;;;;;;;15.10;4.30;;;;;;;30.69;54.70;100803.84;5070307;27;69841;-33
2021/07/17 02:16:41;;;;;;;7.80;3.30;;;;;;;30.63;54.60;100798.47;5068455;27;64589;-32
2021/07/17 02:19:22;;;;;;;6.25;3.20;;;;;;;30.49;53.57;100797.75;5069430;27;69960;-36
2021/07/17 02:21:53;;;;;;;10.07;2.67;;;;;;;30.48;54.27;100796.09;5070584;27;65790;-34
2021/07/17 02:24:24;;;;;;;3.42;2.25;;;;;;;30.40;52.91;100794.50;5069715;27;70005;-35
2021/07/17 02:26:54;;;;;;;7.68;2.13;;;;;;;30.32;53.24;100785.81;5065023;27;66844;-38
2021/07/17 02:29:25;;;;;;;12.80;2.08;;;;;;;30.25;52.13;100792.06;5067998;27;70038;-35
2021/07/17 02:31:55;;;;;;;3.00;1.52;;;;;;;30.16;51.93;100785.25;5067649;27;65723;-34
2021/07/17 02:34:26;;;;;;;4.57;1.27;;;;;;;30.14;51.09;100781.91;5068499;27;69247;-34
2021/07/17 02:36:56;;;;;;;6.53;1.60;;;;;;;30.10;50.03;100783.41;5070277;27;65318;-34
2021/07/17 02:39:28;;;;;;;2.05;1.10;;;;;;;30.04;51.01;100779.69;5062528;27;69210;-36
2021/07/17 02:41:58;;;;;;;4.82;1.23;;;;;;;30.04;50.48;100781.59;5066353;27;66541;-34
2021/07/17 02:44:29;;;;;;;12.00;1.50;;;;;;;30.03;49.84;100777.19;5064992;27;69344;-34
2021/07/17 02:46:59;;;;;;;6.32;1.02;;;;;;;29.99;48.67;100771.41;5066746;27;64701;-34
2021/07/17 02:49:31;;;;;;;4.15;0.80;;;;;;;30.00;49.27;100778.47;5066966;27;70853;-33
2021/07/17 02:52:01;;;;;;;;;;;;;;;29.68;48.35;100766.78;5069282;27;65449;-33
2021/07/17 02:54:32;;;;;;;1.25;0.90;;;;;;;29.92;46.97;100764.38;5081894;27;70116;-33
2021/07/17 02:57:03;;;;;;;4.50;0.55;;;;;;;29.91;47.33;100762.72;5071248;27;66398;-33
2021/07/17 02:59:33;;;;;;;7.75;0.90;;;;;;;29.91;47.42;100758.13;5071364;27;69785;-31
2021/07/17 03:02:03;;;;;;;4.40;0.60;;;;;;;29.90;46.56;100759.19;5073363;27;66169;-33
2021/07/17 03:04:35;;;;;;;2.65;0.70;;;;;;;29.82;46.00;100759.44;5069255;27;69213;-34
2021/07/17 03:07:05;;;;;;;2.10;0.60;;;;;;;29.89;45.74;100764.81;5068596;27;65744;-33
2021/07/17 03:09:35;;;;;;;1.23;0.50;;;;;;;29.88;46.03;100760.44;5062083;27;69225;-35
2021/07/17 03:12:06;;;;;;;0.90;0.50;;;;;;;29.82;44.84;100749.44;5071948;27;65328;-33
2021/07/17 03:14:36;;;;;;;2.92;0.50;;;;;;;29.84;44.72;100758.19;5072119;27;69786;-34
2021/07/17 03:17:07;;;;;;;0.80;0.57;;;;;;;29.81;44.86;100750.50;5067924;27;65533;-32
2021/07/17 03:19:37;;;;;;;4.72;0.60;;;;;;;29.87;44.81;100751.50;5073954;27;70163;-34
2021/07/17 03:22:09;;;;;;;1.45;0.52;;;;;;;29.85;43.96;100740.06;5072447;27;66225;-34
2021/07/17 03:24:39;;;;;;;1.07;0.60;;;;;;;29.84;44.95;100741.97;5073738;27;69940;-35
2021/07/17 03:27:09;;;;;;;1.25;0.60;;;;;;;29.85;43.98;100731.97;5072758;27;65598;-33
2021/07/17 03:29:39;;;;;;;1.45;0.50;;;;;;;29.84;43.54;100743.84;5072970;27;70067;-33
2021/07/17 03:32:11;;;;;;;3.70;0.60;;;;;;;29.86;43.93;100738.19;5077416;27;66331;-33
2021/07/17 03:34:42;;;;;;;1.75;0.47;;;;;;;29.82;43.72;100737.81;5072666;27;70630;-33
2021/07/17 03:37:12;;;;;;;0.98;0.60;;;;;;;29.84;44.22;100723.03;5074618;27;65477;-33
2021/07/17 03:39:42;;;;;;;0.68;0.50;;;;;;;29.88;44.55;100730.69;5073951;27;70583;-34
2021/07/17 03:42:12;;;;;;;1.25;0.63;;;;;;;29.89;44.38;100721.53;5076423;27;66726;-35
2021/07/17 03:44:43;;;;;;;1.00;0.60;;;;;;;29.89;43.80;100721.53;5051060;27;69371;-38
2021/07/17 03:47:15;;;;;;;3.40;0.65;;;;;;;29.90;44.14;100717.81;5067803;27;65103;-36
2021/07/17 03:49:46;;;;;;;1.42;0.70;;;;;;;29.90;43.65;100723.22;5055897;27;68636;-34
2021/07/17 03:52:16;;;;;;;2.60;0.40;;;;;;;29.92;43.24;100723.81;5073194;27;65161;-33
2021/07/17 03:54:46;;;;;;;0.88;0.50;;;;;;;29.90;43.30;100712.41;5072512;27;70398;-34
2021/07/17 03:57:17;;;;;;;5.22;0.70;;;;;;;29.91;45.46;100714.88;5069206;27;66145;-35
2021/07/17 03:59:48;;;;;;;10.98;1.08;;;;;;;29.98;46.68;100706.72;5073855;27;71348;-34
2021/07/17 04:02:18;;;;;;;1.90;0.93;;;;;;;29.99;47.28;100701.09;5073255;27;65955;-34
2021/07/17 04:04:49;;;;;;;2.22;1.15;;;;;;;30.06;47.88;100718.09;5067747;27;69127;-34
2021/07/17 04:07:19;;;;;;;3.97;1.20;;;;;;;30.07;46.90;100710.81;5067578;27;66411;-37
2021/07/17 04:09:50;;;;;;;11.95;1.05;;;;;;;30.12;45.73;100705.59;5066060;27;69302;-34
2021/07/17 04:12:20;;;;;;;3.53;0.90;;;;;;;30.12;45.93;100689.34;5071094;27;66224;-37
2021/07/17 04:14:51;;;;;;;1.00;0.55;;;;;;;30.07;45.40;100681.06;5067827;27;69742;-37
2021/07/17 04:17:23;;;;;;;1.60;0.60;;;;;;;30.14;44.32;100675.59;5066238;27;66545;-35
2021/07/17 04:19:53;;;;;;;0.82;0.50;;;;;;;30.14;44.06;100681.00;5068711;27;68326;-35
2021/07/17 04:22:25;;;;;;;4.82;0.70;;;;;;;30.12;43.77;100678.53;5069476;27;66346;-34
2021/07/17 04:24:55;;;;;;;0.80;0.40;;;;;;;30.15;43.56;100675.38;5071987;27;70831;-34
2021/07/17 04:27:26;;;;;;;2.25;0.85;;;;;;;30.08;43.55;100665.66;5068516;27;66304;-34
2021/07/17 04:29:56;;;;;;;9.60;1.20;;;;;;;30.15;44.13;100661.84;5073143;27;69802;-36
2021/07/17 04:32:42;;;;;;;5.60;1.30;;;;;;;30.11;42.73;100663.31;5071350;27;66319;-35
2021/07/17 04:35:12;;;;;;;18.20;1.52;;;;;;;30.12;43.01;100651.47;5074558;27;69688;-33
2021/07/17 04:37:43;;;;;;;9.43;1.88;;;;;;;30.11;43.34;100649.81;5069759;27;66253;-34
2021/07/17 04:40:14;;;;;;;22.73;2.45;;;;;;;30.13;43.94;100658.53;5070154;27;69837;-34
2021/07/17 04:42:44;;;;;;;30.67;2.58;;;;;;;30.07;44.57;100640.50;5070670;27;65321;-34
2021/07/17 04:45:14;;;;;;;28.50;2.63;;;;;;;30.14;44.71;100643.94;5068453;27;70129;-36
2021/07/17 04:47:45;;;;;;;34.47;2.75;;;;;;;30.18;44.57;100650.59;5070269;27;65748;-35
2021/07/17 04:50:15;;;;;;;25.90;2.75;;;;;;;30.19;44.23;100646.81;5065844;27;70494;-34
2021/07/17 04:52:46;;;;;;;26.40;2.10;;;;;;;30.20;44.56;100637.69;5073387;27;65691;-35
2021/07/17 04:55:17;;;;;;;30.20;2.50;;;;;;;30.23;45.35;100631.84;5073934;27;69805;-36
2021/07/17 04:57:47;;;;;;;15.38;2.67;;;;;;;30.23;44.96;100626.44;5068829;27;66920;-34
2021/07/17 05:00:19;;;;;;;18.40;3.05;;;;;;;30.20;45.67;100618.75;5066514;27;69606;-35
2021/07/17 05:02:52;;;;;;;42.40;2.63;;;;;;;30.04;45.66;100593.06;5068522;27;66702;-34
2021/07/17 05:05:24;;;;;;;17.92;1.73;;;;;;;30.23;45.11;100623.72;5067327;27;71027;-37
2021/07/17 05:07:54;;;;;;;;;;;;;;;29.94;44.74;100622.47;5068435;27;66103;-32
2021/07/17 05:10:26;;;;;;;9.80;1.10;;;;;;;30.19;43.99;100613.53;5065470;27;70600;-35
2021/07/17 05:12:56;;;;;;;12.68;1.00;;;;;;;30.19;43.91;100608.94;5066250;27;65247;-40
2021/07/17 05:15:27;;;;;;;8.65;0.70;;;;;;;30.20;43.47;100624.16;5065064;27;70225;-35
2021/07/17 05:17:57;;;;;;;10.00;1.10;;;;;;;30.18;43.55;100612.72;5069695;27;66476;-35
2021/07/17 05:20:29;;;;;;;12.80;1.10;;;;;;;30.15;42.32;100610.47;5073952;27;69119;-36
2021/07/17 05:23:00;;;;;;;5.40;0.70;;;;;;;30.00;42.66;100569.38;5073932;27;66157;-36
2021/07/17 05:25:31;;;;;;;;;;;;;;;29.92;42.05;100602.09;5071959;27;69855;-39
2021/07/17 05:28:01;;;;;;;4.40;0.50;;;;;;;30.12;41.52;100585.72;5084190;27;66120;-37
2021/07/17 05:30:31;;;;;;;3.08;0.60;;;;;;;30.15;41.88;100590.69;5065482;27;69541;-37
2021/07/17 05:33:03;;;;;;;1.42;0.50;;;;;;;30.14;41.21;100580.91;5072238;27;65587;-38
2021/07/17 05:35:34;;;;;;;2.67;0.50;;;;;;;30.13;41.51;100588.19;5073573;27;69954;-39
2021/07/17 05:38:04;;;;;;;1.90;0.68;;;;;;;30.13;41.16;100587.38;5054828;28;66073;-42
2021/07/17 05:40:36;;;;;;;3.17;0.40;;;;;;;30.14;40.95;100589.03;5058746;27;70082;-37
2021/07/17 05:43:06;;;;;;;0.43;0.30;;;;;;;30.09;40.21;100578.88;5066918;27;65235;-35
2021/07/17 05:45:38;;;;;;;0.52;0.30;;;;;;;30.14;40.88;100583.63;5068787;27;69438;-36
2021/07/17 05:48:10;;;;;;;1.48;0.40;;;;;;;30.15;41.11;100579.88;5056742;28;67539;-38
2021/07/17 05:50:40;;;;;;;0.47;0.20;;;;;;;30.18;40.59;100580.25;5068486;27;70313;-39
2021/07/17 05:53:11;;;;;;;0.52;0.40;;;;;;;30.21;41.04;100574.38;5070498;27;65619;-35
2021/07/17 05:55:41;;;;;;;0.30;0.30;;;;;;;30.18;40.71;100553.19;5064090;27;70049;-35
2021/07/17 05:58:12;;;;;;;7.85;0.40;;;;;;;30.25;40.47;100559.38;5065146;27;66280;-35
2021/07/17 06:00:44;;;;;;;1.52;0.30;;;;;;;30.33;40.83;100562.84;5068837;27;70052;-34
2021/07/17 06:03:15;;;;;;;8.98;0.25;;;;;;;30.41;40.96;100559.84;5038585;28;66030;-34
2021/07/17 06:05:47;;;;;;;7.45;0.30;;;;;;;30.45;40.49;100542.09;5076321;27;69625;-33
2021/07/17 06:08:18;;;;;;;0.95;0.30;;;;;;;30.42;40.22;100526.31;5074464;27;66505;-33
2021/07/17 06:10:48;;;;;;;0.82;0.30;;;;;;;30.54;39.78;100531.84;5086184;27;69277;-34
2021/07/17 06:13:19;;;;;;;0.82;0.20;;;;;;;30.59;39.83;100521.97;5070920;27;66549;-37
2021/07/17 06:15:49;;;;;;;0.52;0.20;;;;;;;30.62;39.36;100520.66;5072151;27;69407;-35
2021/07/17 06:18:20;;;;;;;0.28;0.20;;;;;;;30.65;39.21;100529.19;5057493;28;66237;-34
2021/07/17 06:20:50;;;;;;;0.52;0.20;;;;;;;30.68;38.66;100517.91;5074114;27;70829;-33
2021/07/17 06:23:21;;;;;;;0.65;0.22;;;;;;;30.72;39.30;100505.53;5067547;27;66809;-32
2021/07/17 06:25:52;;;;;;;7.15;0.20;;;;;;;30.77;38.66;100494.03;5075348;27;70142;-33
2021/07/17 06:28:22;;;;;;;1.27;0.30;;;;;;;30.84;39.51;100502.09;5076075;27;66434;-32
2021/07/17 06:30:53;;;;;;;3.47;0.20;;;;;;;30.87;39.94;100501.63;5068769;27;69669;-33
2021/07/17 06:33:24;;;;;;;0.25;0.15;;;;;;;30.92;39.04;100507.19;5071124;27;65481;-39
2021/07/17 06:35:54;;;;;;;0.30;0.20;;;;;;;30.89;39.23;100494.09;5066938;27;70657;-35
2021/07/17 06:38:25;;;;;;;0.45;0.20;;;;;;;30.97;39.50;100485.66;5069992;27;65455;-33
2021/07/17 06:40:55;;;;;;;5.15;0.30;;;;;;;30.98;38.97;100490.03;5070903;27;70688;-33
2021/07/17 06:43:25;;;;;;;1.85;0.20;;;;;;;31.01;38.94;100481.44;5069005;27;66259;-34
2021/07/17 06:45:55;;;;;;;1.48;0.30;;;;;;;30.95;38.98;100468.81;5070259;27;70645;-34
2021/07/17 06:48:26;;;;;;;3.47;0.40;;;;;;;30.99;38.43;100467.31;5066022;27;66689;-35
2021/07/17 06:50:56;;;;;;;1.23;0.40;;;;;;;30.97;38.55;100464.00;5070297;27;70259;-34
2021/07/17 06:53:27;;;;;;;4.03;0.20;;;;;;;30.99;37.91;100470.00;5068584;27;66707;-34
2021/07/17 06:55:58;;;;;;;3.67;0.20;;;;;;;31.01;38.31;100461.63;5074903;27;69986;-34
2021/07/17 06:58:29;;;;;;;2.45;0.20;;;;;;;30.95;38.36;100455.25;5071090;27;66069;-33
2021/07/17 07:00:59;;;;;;;0.50;0.30;;;;;;;31.06;38.27;100468.00;5072064;27;69465;-34
2021/07/17 07:03:31;;;;;;;2.70;0.10;;;;;;;31.01;37.87;100459.78;5069515;27;66000;-33
2021/07/17 07:06:02;;;;;;;0.40;0.20;;;;;;;31.06;37.36;100440.94;5068339;27;70313;-33
2021/07/17 07:08:33;;;;;;;0.55;0.20;;;;;;;30.99;37.66;100432.09;5069076;27;66244;-35
2021/07/17 07:11:04;;;;;;;0.20;0.20;;;;;;;31.15;37.55;100444.97;5067144;27;70616;-35
2021/07/17 07:13:34;;;;;;;0.20;0.20;;;;;;;31.12;37.38;100450.84;5068128;27;66108;-33
2021/07/17 07:16:05;;;;;;;0.25;0.20;;;;;;;31.16;37.87;100446.59;5068050;27;70752;-35
2021/07/17 07:18:35;;;;;;;0.40;0.20;;;;;;;31.17;37.36;100439.31;5066720;27;65682;-35
2021/07/17 07:21:07;;;;;;;0.38;0.20;;;;;;;31.20;37.16;100435.31;5062154;27;70135;-33
2021/07/17 07:23:38;;;;;;;10.85;0.22;;;;;;;31.19;37.15;100434.47;5069780;27;65618;-34
2021/07/17 07:26:08;;;;;;;0.47;0.30;;;;;;;31.16;37.07;100424.13;5071301;27;70173;-34
2021/07/17 07:28:39;;;;;;;0.35;0.30;;;;;;;31.21;37.24;100420.72;5069392;27;65133;-34
2021/07/17 07:31:09;;;;;;;0.45;0.30;;;;;;;31.20;37.69;100441.53;5074081;27;70029;-34
2021/07/17 07:33:40;;;;;;;0.20;0.20;;;;;;;31.20;37.00;100429.88;5074743;27;65654;-35
2021/07/17 07:36:10;;;;;;;0.22;0.20;;;;;;;31.20;37.89;100413.63;5073353;27;70479;-38
2021/07/17 07:38:41;;;;;;;1.60;0.30;;;;;;;31.23;37.94;100413.16;5071731;27;66120;-34
2021/07/17 07:41:12;;;;;;;5.00;0.93;;;;;;;31.24;38.10;100414.81;5073355;27;70409;-33
2021/07/17 07:43:45;;;;;;;8.60;0.47;;;;;;;31.21;38.42;100415.28;5071895;27;66562;-37
2021/07/17 07:46:16;;;;;;;5.30;0.93;;;;;;;31.27;39.66;100408.94;5066723;27;69102;-35
2021/07/17 07:48:47;;;;;;;3.47;0.40;;;;;;;31.36;39.98;100407.56;5071332;27;65460;-38
2021/07/17 07:51:18;;;;;;;4.35;0.40;;;;;;;31.36;39.67;100410.25;5069840;27;70493;-34
2021/07/17 07:53:49;;;;;;;3.33;0.40;;;;;;;31.36;39.69;100402.13;5069906;27;66360;-40
2021/07/17 07:56:20;;;;;;;15.88;0.35;;;;;;;31.36;39.73;100397.53;5071770;27;70359;-37
2021/07/17 07:58:51;;;;;;;15.07;0.70;;;;;;;31.30;40.14;100390.31;5054452;27;66040;-34
2021/07/17 08:01:21;;;;;;;3.83;0.30;;;;;;;31.35;39.81;100384.19;5067362;27;69955;-38
2021/07/17 08:03:52;;;;;;;14.52;0.60;;;;;;;31.35;40.17;100376.06;5061923;27;66040;-39
2021/07/17 08:06:23;;;;;;;46.85;1.63;;;;;;;31.40;40.43;100381.66;5062090;27;70139;-34
2021/07/17 08:08:54;;;;;;;23.17;1.40;;;;;;;31.39;40.83;100382.69;5065364;27;65814;-36
2021/07/17 08:11:24;;;;;;;21.88;2.10;;;;;;;31.39;40.51;100369.13;5047035;27;70431;-35
2021/07/17 08:13:58;;;;;;;27.02;2.53;;;;;;;31.38;40.68;100367.50;5062370;27;66582;-34
2021/07/17 08:16:28;;;;;;;33.75;2.80;;;;;;;31.38;40.80;100362.06;5068213;27;69698;-35
2021/07/17 08:19:00;;;;;;;25.40;2.08;;;;;;;31.34;40.59;100363.56;5054992;28;66078;-33
2021/07/17 08:21:31;;;;;;;25.27;2.10;;;;;;;31.30;41.52;100351.56;5068638;27;69120;-34
2021/07/17 08:24:03;;;;;;;13.75;2.25;;;;;;;31.31;41.18;100359.44;5064919;27;66766;-35
2021/07/17 08:26:33;;;;;;;;;;;;;;;31.01;43.42;100356.84;5073720;27;70400;-35
2021/07/17 08:29:04;;;;;;;8.32;2.30;;;;;;;31.27;42.95;100360.16;5066258;27;66478;-36
2021/07/17 08:31:35;;;;;;;15.23;2.60;;;;;;;31.14;42.08;100345.75;5068733;27;68701;-35
2021/07/17 08:34:06;;;;;;;5.50;2.35;;;;;;;31.23;41.83;100365.22;5065520;27;65662;-34
2021/07/17 08:36:37;;;;;;;7.32;2.38;;;;;;;31.12;41.15;100347.06;5066632;27;70370;-34
2021/07/17 08:39:08;;;;;;;17.17;2.33;;;;;;;31.16;40.97;100362.63;5070324;27;65612;-36
2021/07/17 08:41:44;;;;;;;14.73;2.30;;;;;;;31.11;40.66;100356.25;5067117;27;69997;-35
2021/07/17 08:44:16;;;;;;;17.95;2.60;;;;;;;31.13;40.45;100349.53;5064062;27;66468;-34
2021/07/17 08:46:47;;;;;;;9.30;2.53;;;;;;;31.09;39.82;100367.34;5067950;27;71024;-35
2021/07/17 08:49:18;;;;;;;5.20;2.40;;;;;;;31.10;40.14;100377.09;5069517;28;66106;-36
2021/07/17 08:51:51;;;;;;;9.63;2.53;;;;;;;31.07;39.83;100371.34;5069544;27;70274;-34
2021/07/17 08:54:27;;;;;;;3.58;2.20;;;;;;;31.03;39.41;100376.38;5064789;27;64811;-35
2021/07/17 08:56:59;;;;;;;5.18;2.00;;;;;;;31.02;39.49;100363.91;5053165;28;70623;-34
2021/07/17 08:59:29;;;;;;;8.07;2.22;;;;;;;31.00;38.94;100359.78;5044756;27;66062;-37
2021/07/17 09:02:00;;;;;;;7.93;2.25;;;;;;;31.05;39.52;100363.44;5067110;27;69707;-34
2021/07/17 09:04:34;;;;;;;6.40;2.30;;;;;;;31.04;41.48;100366.41;5068132;27;66149;-33
2021/07/17 09:07:05;;;;;;;12.07;2.28;;;;;;;31.05;41.42;100366.16;5067958;27;70563;-32
2021/07/17 09:09:38;;;;;;;8.82;2.67;;;;;;;31.07;41.50;100349.66;5069222;27;66539;-33
2021/07/17 09:12:25;;;;;;;8.60;2.53;;;;;;;30.70;41.14;100310.03;5068391;27;70132;-33
2021/07/17 09:14:55;;;;;;;22.85;2.97;;;;;;;31.07;41.64;100345.06;5073899;27;66229;-34
2021/07/17 09:17:27;;;;;;;23.65;3.38;;;;;;;31.08;41.74;100346.72;5075860;27;70079;-33
2021/07/17 09:20:00;;;;;;;64.53;3.45;;;;;;;30.79;41.64;100298.88;5076211;27;66769;-33
2021/07/17 09:22:39;;;;;;;63.90;4.22;;;;;;;31.09;42.15;100353.81;5073664;27;69451;-37
2021/07/17 09:25:17;;;;;;;98.45;5.15;;;;;;;31.10;42.70;100352.72;5077566;27;66889;-34
2021/07/17 09:27:47;;;;;;;109.30;5.72;;;;;;;31.02;43.08;100331.41;5073349;27;69632;-34
2021/07/17 09:30:27;;;;;;;81.80;4.88;;;;;;;31.09;42.47;100337.53;5075095;27;65300;-34
2021/07/17 09:33:02;;;;;;;74.90;4.80;;;;;;;30.80;42.71;100297.81;5073346;27;69751;-34
2021/07/17 09:35:36;;;;;;;46.60;4.07;;;;;;;31.08;41.80;100340.47;5075880;27;65517;-33
2021/07/17 09:38:08;;;;;;;40.20;3.80;;;;;;;31.01;41.51;100329.75;5065870;27;70385;-34
2021/07/17 09:40:48;;;;;;;30.50;3.78;;;;;;;30.77;40.77;100290.13;5077813;27;66013;-33
2021/07/17 09:43:30;;;;;;;15.93;3.55;;;;;;;31.03;40.97;100341.16;5072266;27;70277;-34
2021/07/17 09:46:14;;;;;;;16.35;4.85;;;;;;;30.99;52.88;100304.78;5074115;27;65907;-34
2021/07/17 09:48:52;;;;;;;16.33;4.32;;;;;;;31.31;53.67;100304.41;5074636;27;70418;-37
2021/07/17 09:51:31;;;;;;;13.07;7.05;;;;;;;31.66;55.01;100330.69;5071968;27;65548;-35
2021/07/17 09:54:09;;;;;;;21.23;4.80;;;;;;;31.87;55.32;100335.47;5064689;27;69339;-34
2021/07/17 09:56:41;;;;;;;6.43;5.88;;;;;;;31.87;56.43;100311.06;5072055;27;65137;-34
2021/07/17 09:59:34;;;;;;;;;;;;;;;32.02;57.67;100352.09;5069946;27;70867;-36
2021/07/17 10:02:04;;;;;;;7.40;4.95;;;;;;;32.37;55.26;100342.97;5069144;27;65615;-35
2021/07/17 10:04:52;;;;;;;18.97;4.97;;;;;;;32.46;55.74;100336.13;5072450;27;69308;-35
2021/07/17 10:07:45;;;;;;;7.68;5.05;;;;;;;32.59;53.91;100345.84;5070594;27;66043;-34
2021/07/17 10:10:26;;;;;;;14.10;4.40;;;;;;;32.71;53.66;100354.75;5063218;27;70023;-36
2021/07/17 10:12:59;;;;;;;11.27;4.03;;;;;;;32.66;54.03;100334.84;5072917;27;66267;-36
2021/07/17 10:15:33;;;;;;;7.10;5.05;;;;;;;32.83;54.96;100351.97;5074214;27;70092;-34
2021/07/17 10:18:23;;;;;;;12.75;4.60;;;;;;;32.87;56.38;100358.53;5075941;27;66113;-36
2021/07/17 10:20:55;;;;;;;9.45;4.78;;;;;;;32.88;55.73;100352.06;5072085;27;69798;-35
2021/07/17 10:23:26;;;;;;;6.60;5.63;;;;;;;32.95;55.58;100365.47;5086558;27;66630;-36
2021/07/17 10:25:57;;;;;;;5.82;5.05;;;;;;;33.00;55.65;100357.44;5074741;27;69694;-36
2021/07/17 10:28:29;;;;;;;6.35;5.20;;;;;;;33.02;56.47;100368.06;5072998;27;65638;-36
2021/07/17 10:31:00;;;;;;;15.15;5.32;;;;;;;33.10;57.69;100368.47;5075076;27;70350;-39
2021/07/17 10:33:32;;;;;;;10.40;5.15;;;;;;;33.09;57.52;100374.13;5058875;27;66175;-38
2021/07/17 10:36:06;;;;;;;;;;;;;;;32.91;58.97;100376.00;5061674;28;70507;-36
2021/07/17 10:38:43;;;;;;;17.85;7.57;;;;;;;32.99;58.36;100355.75;5074682;27;65603;-39
2021/07/17 10:41:17;;;;;;;25.77;8.35;;;;;;;33.09;58.66;100371.41;5084301;27;69179;-36
2021/07/17 10:43:55;;;;;;;19.70;8.25;;;;;;;33.18;58.31;100386.22;5071011;27;66526;-38
2021/07/17 10:46:43;;;;;;;17.80;8.15;;;;;;;33.12;59.41;100392.66;5072989;27;70391;-35
2021/07/17 10:49:15;;;;;;;24.88;9.70;;;;;;;33.17;58.73;100391.94;5081616;27;65603;-40
2021/07/17 10:51:52;;;;;;;17.95;8.55;;;;;;;33.17;58.50;100389.22;5069777;27;69869;-40
2021/07/17 10:54:30;;;;;;;16.52;7.60;;;;;;;33.15;59.29;100392.16;5065759;27;66083;-39
2021/07/17 10:57:01;;;;;;;18.40;7.97;;;;;;;33.13;58.62;100400.59;5056866;27;70640;-36
2021/07/17 10:59:32;;;;;;;10.88;6.85;;;;;;;33.12;58.66;100398.91;5075013;27;67270;-37
2021/07/17 11:02:05;;;;;;;12.98;7.22;;;;;;;33.12;58.60;100398.09;5069682;27;70095;-41
2021/07/17 11:04:45;;;;;;;17.30;6.82;;;;;;;33.13;58.59;100407.91;5075454;27;65514;-41
2021/07/17 11:07:19;;;;;;;13.43;7.10;;;;;;;33.13;59.05;100405.19;5072619;27;70223;-37
2021/07/17 11:09:58;;;;;;;8.52;6.53;;;;;;;32.87;59.03;100380.28;5074099;27;65715;-35
2021/07/17 11:12:42;;;;;;;11.23;6.40;;;;;;;33.11;58.67;100429.06;5056231;27;69947;-36
2021/07/17 11:15:12;;;;;;;14.68;6.40;;;;;;;33.09;58.32;100437.47;5073574;27;65427;-37
2021/07/17 11:17:48;;;;;;;11.30;6.72;;;;;;;33.10;59.08;100435.59;5070640;27;69079;-36
2021/07/17 11:20:35;;;;;;;8.20;6.65;;;;;;;32.84;58.99;100396.25;5061061;27;65415;-35
2021/07/17 11:23:14;;;;;;;8.65;6.20;;;;;;;33.12;59.17;100447.00;5070912;27;69746;-37
2021/07/17 11:25:59;;;;;;;10.18;6.40;;;;;;;33.01;59.21;100450.63;5069724;27;65086;-38
2021/07/17 11:28:57;;;;;;;11.00;6.53;;;;;;;33.05;59.90;100457.25;5071645;27;69446;-37
2021/07/17 11:31:27;;;;;;;9.48;6.70;;;;;;;33.10;59.09;100460.06;5069208;27;66080;-38
2021/07/17 11:34:11;;;;;;;7.13;5.95;;;;;;;33.07;59.83;100471.38;5065351;27;70349;-37
2021/07/17 11:36:53;;;;;;;7.40;6.05;;;;;;;32.92;59.21;100442.84;5053449;27;66372;-36
2021/07/17 11:39:25;;;;;;;8.15;6.00;;;;;;;33.12;59.82;100491.31;5074145;27;69670;-39
2021/07/17 11:42:01;;;;;;;9.70;5.80;;;;;;;32.85;59.38;100458.50;5074123;27;65317;-36
2021/07/17 11:44:35;;;;;;;7.18;6.50;;;;;;;33.16;59.37;100518.84;5058400;27;70186;-35
2021/07/17 11:47:19;;;;;;;7.00;6.30;;;;;;;32.62;60.17;100447.72;5071891;27;66390;-41